Marcus G. Langseth — WDC6698 — position and weather

sailwx.info

Track history (hours):
 
Tides and Currents Weather Stations Pressure Air Temp Water Temp Dewpoint Dewpoint Depression Visibility Wind Speed Wind Dir Waves Ship Positions

Oceanographic research ship Marcus G. Langseth (USA)

Detailed information on ship capabilities available from ARCUS's ALIAS (Arctic Logistics Information and Support) project.

More information available from US FCC via Universal Licensing System and Coast Guard Vessel Documentation Center.

Last reported at 2014-Aug-21 21:34 UTC. Time now 2014-Aug-21 22:04 UTC.
Position N 40°02' W 073°30'.

Length 72 m; draft 6.6 m.

Type: Ship. MMSI: 367059880.

Date/timePositionNaut miles runAvg speedWind from/ knotsBaromVisibWave heightAir tempDewpointWater temp
2014-Aug-21 21:34N 40°02' W 073°30'3 2.7
2014-Aug-21 20:33N 39°59' W 073°28'3 2.6
2014-Aug-21 19:33N 40°01' W 073°31'2 1.5
2014-Aug-21 18:27N 40°01' W 073°33'1 1.1
2014-Aug-21 17:34N 40°01' W 073°32'3 2.6
2014-Aug-21 16:33N 40°02' W 073°35'1 1.2
2014-Aug-21 15:33N 40°02' W 073°33'3 2.8
2014-Aug-21 14:34N 40°00' W 073°30'3 2.8
2014-Aug-21 13:33N 39°58' W 073°28'1 1.2
2014-Aug-21 12:33N 39°59' W 073°29'4 3.6
2014-Aug-21 11:34N 40°02' W 073°31'1 1.2
2014-Aug-21 10:33N 40°02' W 073°33'2 1.6
2014-Aug-21 09:34N 40°02' W 073°31'2 1.5
2014-Aug-21 08:34N 40°01' W 073°32'3 3.0
2014-Aug-21 07:34N 39°59' W 073°28'1 1.4
2014-Aug-21 06:34N 39°60' W 073°27'3 3.3
2014-Aug-21 05:33N 40°02' W 073°30'2 1.9
2014-Aug-21 04:30N 40°01' W 073°33'3 3.0
2014-Aug-21 03:29N 40°02' W 073°29'2 1.6
2014-Aug-21 02:34N 40°03' W 073°31'3 2.6
2014-Aug-21 01:34N 40°00' W 073°29'3 3.3
2014-Aug-21 00:34N 39°57' W 073°27'2 2.4
2014-Aug-20 23:34N 39°59' W 073°25'7 7.1
2014-Aug-20 22:33N 40°06' W 073°25'7 7.4
2014-Aug-20 21:33N 40°11' W 073°31'9 8.8
2014-Aug-20 20:33N 40°17' W 073°40'1110.9
2014-Aug-20 19:33N 40°26' W 073°49'9 9.4
2014-Aug-20 18:33N 40°31' W 073°60'9 9.0
2014-Aug-20 17:33N 40°40' W 074°03'3 2.7
2014-Aug-20 16:33N 40°41' W 074°00'0 0.0
2014-Aug-20 15:33N 40°41' W 074°00'0 0.0
2014-Aug-20 14:33N 40°41' W 074°00'0 0.0
2014-Aug-20 13:33N 40°41' W 074°00'0 0.0
2014-Aug-20 12:33N 40°41' W 074°00'0 0.0
2014-Aug-20 11:33N 40°41' W 074°00'0 0.0
2014-Aug-20 10:33N 40°41' W 074°00'0 0.0
2014-Aug-20 09:33N 40°41' W 074°00'0 0.0
2014-Aug-20 08:33N 40°41' W 074°00'0 0.0
2014-Aug-20 07:33N 40°41' W 074°00'0 0.0
2014-Aug-20 06:33N 40°41' W 074°00'0 0.0
2014-Aug-20 05:33N 40°41' W 074°00'0 0.0
2014-Aug-20 04:33N 40°41' W 074°00'0 0.0
2014-Aug-20 03:33N 40°41' W 074°00'0 0.0
2014-Aug-20 02:33N 40°41' W 074°00'0 0.0
2014-Aug-20 01:33N 40°41' W 074°00'0 0.0
2014-Aug-20 00:33N 40°41' W 074°00'0 0.0
2014-Aug-19 23:33N 40°41' W 074°00'0 0.0
2014-Aug-19 22:33N 40°41' W 074°00'0 0.0
2014-Aug-19 21:33N 40°41' W 074°00'0 0.0
2014-Aug-19 20:33N 40°41' W 074°00'0 0.0
2014-Aug-19 19:33N 40°41' W 074°00'0 0.0
2014-Aug-19 18:33N 40°41' W 074°00'0 0.0
2014-Aug-19 17:33N 40°41' W 074°00'0 0.0
2014-Aug-19 16:33N 40°41' W 074°00'0 0.0
2014-Aug-19 15:33N 40°41' W 074°00'0 0.0
2014-Aug-19 14:33N 40°41' W 074°00'0 0.0
2014-Aug-19 13:33N 40°41' W 074°00'0 0.0
2014-Aug-19 12:33N 40°41' W 074°00'0 0.0
2014-Aug-19 11:33N 40°41' W 074°00'0 0.0
2014-Aug-19 10:33N 40°41' W 074°00'0 0.0
2014-Aug-19 09:33N 40°41' W 074°00'0 0.0
2014-Aug-19 08:33N 40°41' W 074°00'0 0.0
2014-Aug-19 07:33N 40°41' W 074°00'0 0.0
2014-Aug-19 06:33N 40°41' W 074°00'0 0.0
2014-Aug-19 05:33N 40°41' W 074°00'0 0.0
2014-Aug-19 04:33N 40°41' W 074°00'0 0.0
2014-Aug-19 03:33N 40°41' W 074°00'0 0.0
2014-Aug-19 02:33N 40°41' W 074°00'0 0.0
2014-Aug-19 01:33N 40°41' W 074°00'0 0.0
2014-Aug-19 00:33N 40°41' W 074°00'0 0.0
2014-Aug-18 23:33N 40°41' W 074°00'0 0.0
2014-Aug-18 22:33N 40°41' W 074°00'0 0.0
2014-Aug-18 21:33N 40°41' W 074°00'0 0.0
2014-Aug-18 20:33N 40°41' W 074°00'0 0.0
2014-Aug-18 19:33N 40°41' W 074°00'0 0.0
2014-Aug-18 18:33N 40°41' W 074°00'0 0.0
2014-Aug-18 17:33N 40°41' W 074°00'0 0.0
2014-Aug-18 16:33N 40°41' W 074°00'0 0.0
2014-Aug-18 15:33N 40°41' W 074°00'0 0.0
2014-Aug-18 14:33N 40°41' W 074°00'0 0.0
2014-Aug-18 13:33N 40°41' W 074°00'0 0.0
2014-Aug-18 12:33N 40°41' W 074°00'0 0.0
2014-Aug-18 11:33N 40°41' W 074°00'0 0.0
2014-Aug-18 10:33N 40°41' W 074°00'0 0.0
2014-Aug-18 09:30N 40°41' W 074°00'0 0.0
2014-Aug-18 08:33N 40°41' W 074°00'0 0.0
2014-Aug-18 07:33N 40°41' W 074°00'0 0.0
2014-Aug-18 06:33N 40°41' W 074°00'0 0.0
2014-Aug-18 05:33N 40°41' W 074°00'0 0.0
2014-Aug-18 04:33N 40°41' W 074°00'0 0.0
2014-Aug-18 03:33N 40°41' W 074°00'0 0.0
2014-Aug-18 02:33N 40°41' W 074°00'0 0.0
2014-Aug-18 01:33N 40°41' W 074°00'0 0.0
2014-Aug-18 00:30N 40°41' W 074°00'0 0.0
2014-Aug-17 18:33N 40°41' W 074°00'0 0.0
2014-Aug-17 17:30N 40°41' W 074°00'0 0.0
2014-Aug-17 16:33N 40°41' W 074°00'0 0.0
2014-Aug-17 15:33N 40°41' W 074°00'0 0.0
2014-Aug-17 14:33N 40°41' W 074°00'0 0.0
2014-Aug-17 13:33N 40°41' W 074°00'0 0.0
2014-Aug-17 12:33N 40°41' W 074°00'0 0.0
2014-Aug-17 11:33N 40°41' W 074°00'0 0.0
2014-Aug-17 10:30N 40°41' W 074°00'0 0.0
2014-Aug-17 09:33N 40°41' W 074°00'0 0.0
2014-Aug-17 08:33N 40°41' W 074°00'0 0.0
2014-Aug-17 07:33N 40°41' W 074°00'0 0.0
2014-Aug-17 06:33N 40°41' W 074°00'0 0.0
2014-Aug-17 05:33N 40°41' W 074°00'0 0.0
2014-Aug-17 04:33N 40°41' W 074°00'0 0.0
2014-Aug-17 03:33N 40°41' W 074°00'0 0.0
2014-Aug-17 02:33N 40°41' W 074°00'0 0.0
2014-Aug-17 01:33N 40°41' W 074°00'0 0.0
2014-Aug-17 00:33N 40°41' W 074°00'0 0.0
2014-Aug-16 23:33N 40°41' W 074°00'0 0.0
2014-Aug-16 22:33N 40°41' W 074°00'0 0.0
2014-Aug-16 21:33N 40°41' W 074°00'0 0.0
2014-Aug-16 20:33N 40°41' W 074°00'0 0.0
2014-Aug-16 19:33N 40°41' W 074°00'0 0.0
2014-Aug-16 18:33N 40°41' W 074°00'0 0.0
2014-Aug-16 17:33N 40°41' W 074°00'0 0.0
2014-Aug-16 16:33N 40°41' W 074°00'0 0.0
2014-Aug-16 15:33N 40°41' W 074°00'0 0.0
2014-Aug-16 14:33N 40°41' W 074°00'0 0.0
2014-Aug-16 13:33N 40°41' W 074°00'0 0.0
2014-Aug-16 12:33N 40°41' W 074°00'0 0.0
2014-Aug-16 11:33N 40°41' W 074°00'0 0.0
2014-Aug-16 10:33N 40°41' W 074°00'0 0.0
2014-Aug-16 09:33N 40°41' W 074°00'0 0.0
2014-Aug-16 08:33N 40°41' W 074°00'0 0.0
2014-Aug-16 07:33N 40°41' W 074°00'0 0.0
2014-Aug-16 06:33N 40°41' W 074°00'0 0.0
2014-Aug-16 05:33N 40°41' W 074°00'0 0.0
2014-Aug-16 04:33N 40°41' W 074°00'0 0.0
2014-Aug-16 03:33N 40°41' W 074°00'0 0.0
2014-Aug-16 02:33N 40°41' W 074°00'0 0.0
2014-Aug-16 01:33N 40°41' W 074°00'0 0.0
2014-Aug-16 00:33N 40°41' W 074°00'0 0.0
2014-Aug-15 23:33N 40°41' W 074°00'0 0.0
2014-Aug-15 22:33N 40°41' W 074°00'0 0.0
2014-Aug-15 21:33N 40°41' W 074°00'0 0.0
2014-Aug-15 20:33N 40°41' W 074°00'0 0.0
2014-Aug-15 19:33N 40°41' W 074°00'0 0.0
2014-Aug-15 18:33N 40°41' W 074°00'0 0.0
2014-Aug-15 17:33N 40°41' W 074°00'0 0.0
2014-Aug-15 16:33N 40°41' W 074°00'0 0.0
2014-Aug-15 15:33N 40°41' W 074°00'0 0.0
2014-Aug-15 14:33N 40°41' W 074°00'0 0.0
2014-Aug-15 13:33N 40°41' W 074°00'0 0.0
2014-Aug-15 12:33N 40°41' W 074°00'0 0.0
2014-Aug-15 11:33N 40°41' W 074°00'0 0.0
2014-Aug-15 10:33N 40°41' W 074°00'0 0.0
2014-Aug-15 09:33N 40°41' W 074°00'0 0.0
2014-Aug-15 08:33N 40°41' W 074°00'0 0.0
2014-Aug-15 07:33N 40°41' W 074°00'0 0.0
2014-Aug-15 06:30N 40°41' W 074°00'0 0.0
2014-Aug-15 05:33N 40°41' W 074°00'0 0.0
2014-Aug-15 04:33N 40°41' W 074°00'0 0.0
2014-Aug-15 03:33N 40°41' W 074°00'0 0.0
2014-Aug-15 02:33N 40°41' W 074°00'0 0.0
2014-Aug-15 01:33N 40°41' W 074°00'0 0.0
2014-Aug-15 00:33N 40°41' W 074°00'0 0.0
2014-Aug-14 23:33N 40°41' W 074°00'0 0.0
2014-Aug-14 22:33N 40°41' W 074°00'0 0.0
2014-Aug-14 21:33N 40°41' W 074°00'0 0.0
2014-Aug-14 20:33N 40°41' W 074°00'0 0.0
2014-Aug-14 19:33N 40°41' W 074°00'0 0.0
2014-Aug-14 18:33N 40°41' W 074°00'0 0.0
2014-Aug-14 17:33N 40°41' W 074°00'0 0.0
2014-Aug-14 16:33N 40°41' W 074°00'0 0.0
2014-Aug-14 15:33N 40°41' W 074°00'0 0.0
2014-Aug-14 14:33N 40°41' W 074°00'0 0.0
2014-Aug-14 13:33N 40°41' W 074°00'0 0.0
2014-Aug-14 12:33N 40°41' W 074°00'0 0.0
2014-Aug-14 11:33N 40°41' W 074°00'0 0.0
2014-Aug-14 10:33N 40°41' W 074°00'0 0.0
2014-Aug-14 09:33N 40°41' W 074°00'0 0.0
2014-Aug-14 08:33N 40°41' W 074°00'0 0.0
2014-Aug-14 07:33N 40°41' W 074°00'0 0.0
2014-Aug-14 06:33N 40°41' W 074°00'0 0.0
2014-Aug-14 05:33N 40°41' W 074°00'0 0.0
2014-Aug-14 04:33N 40°41' W 074°00'0 0.0
2014-Aug-14 03:33N 40°41' W 074°00'0 0.0
2014-Aug-14 02:33N 40°41' W 074°00'0 0.0
2014-Aug-14 01:33N 40°41' W 074°00'0 0.0
2014-Aug-14 00:33N 40°41' W 074°00'0 0.0
2014-Aug-13 23:33N 40°41' W 074°00'0 0.0
2014-Aug-13 22:33N 40°41' W 074°00'0 0.0
2014-Aug-13 21:33N 40°41' W 074°00'0 0.0
2014-Aug-13 20:33N 40°41' W 074°00'0 0.0
2014-Aug-13 19:30N 40°41' W 074°00'0 0.0
2014-Aug-13 18:33N 40°41' W 074°00'0 0.0
2014-Aug-13 17:33N 40°41' W 074°00'0 0.0
2014-Aug-13 16:33N 40°41' W 074°00'0 0.0
2014-Aug-13 15:33N 40°41' W 074°00'0 0.0
2014-Aug-13 14:33N 40°41' W 074°00'0 0.0
2014-Aug-13 13:33N 40°41' W 074°00'0 0.0
2014-Aug-13 12:33N 40°41' W 074°00'0 0.0
2014-Aug-13 11:33N 40°41' W 074°00'0 0.0
2014-Aug-13 10:33N 40°41' W 074°00'0 0.0
2014-Aug-13 09:33N 40°41' W 074°00'0 0.0
2014-Aug-13 08:33N 40°41' W 074°00'0 0.0
2014-Aug-13 07:33N 40°41' W 074°00'0 0.0
2014-Aug-13 06:33N 40°41' W 074°00'0 0.0
2014-Aug-13 05:33N 40°41' W 074°00'0 0.0
2014-Aug-13 04:33N 40°41' W 074°00'0 0.0
2014-Aug-13 03:33N 40°41' W 074°00'0 0.0
2014-Aug-13 02:33N 40°41' W 074°00'0 0.0
2014-Aug-13 01:33N 40°41' W 074°00'0 0.0
2014-Aug-13 00:33N 40°41' W 074°00'0 0.0
2014-Aug-12 23:33N 40°41' W 074°00'0 0.0
2014-Aug-12 22:33N 40°41' W 074°00'0 0.0
2014-Aug-12 21:33N 40°41' W 074°00'0 0.0
2014-Aug-12 20:33N 40°41' W 074°00'0 0.0
2014-Aug-12 19:33N 40°41' W 074°00'0 0.0
2014-Aug-12 18:33N 40°41' W 074°00'0 0.0
2014-Aug-12 17:33N 40°41' W 074°00'0 0.0
2014-Aug-12 16:33N 40°41' W 074°00'0 0.0
2014-Aug-12 15:33N 40°41' W 074°00'0 0.0
2014-Aug-12 14:33N 40°41' W 074°00'0 0.0
2014-Aug-12 13:33N 40°41' W 074°00'0 0.0
2014-Aug-12 12:33N 40°41' W 074°00'0 0.0
2014-Aug-12 11:33N 40°41' W 074°00'0 0.0
2014-Aug-12 10:33N 40°41' W 074°00'0 0.0
2014-Aug-12 09:33N 40°41' W 074°00'0 0.0
2014-Aug-12 08:33N 40°41' W 074°00'0 0.0
2014-Aug-12 07:27N 40°41' W 074°00'0 0.0
2014-Aug-12 06:33N 40°41' W 074°00'0 0.0
2014-Aug-12 05:33N 40°41' W 074°00'0 0.0
2014-Aug-12 04:33N 40°41' W 074°00'0 0.0
2014-Aug-12 03:33N 40°41' W 074°00'0 0.0
2014-Aug-12 02:33N 40°41' W 074°00'0 0.0
2014-Aug-12 01:33N 40°41' W 074°00'0 0.0
2014-Aug-12 00:33N 40°41' W 074°00'0 0.0
2014-Aug-11 23:33N 40°41' W 074°00'0 0.0
2014-Aug-11 22:30N 40°41' W 074°00'  
Track history (hours):
 
Tides and Currents Weather Stations Pressure Air Temp Water Temp Dewpoint Dewpoint Depression Visibility Wind Speed Wind Dir Waves Ship Positions

Oceanographic research ship Marcus G. Langseth (USA)

Detailed information on ship capabilities available from ARCUS's ALIAS (Arctic Logistics Information and Support) project.

More information available from US FCC via Universal Licensing System and Coast Guard Vessel Documentation Center.

Last reported at 2014-Aug-21 21:34 UTC. Time now 2014-Aug-21 22:04 UTC.
Position N 40°02' W 073°30'.

Length 72 m; draft 6.6 m.

Type: Ship. MMSI: 367059880.

Date/timePositionNaut miles runAvg speedWind from/ knotsBaromVisibWave heightAir tempDewpointWater temp
2014-Aug-21 21:34N 40°02' W 073°30'3 2.7
2014-Aug-21 20:33N 39°59' W 073°28'3 2.6
2014-Aug-21 19:33N 40°01' W 073°31'2 1.5
2014-Aug-21 18:27N 40°01' W 073°33'1 1.1
2014-Aug-21 17:34N 40°01' W 073°32'3 2.6
2014-Aug-21 16:33N 40°02' W 073°35'1 1.2
2014-Aug-21 15:33N 40°02' W 073°33'3 2.8
2014-Aug-21 14:34N 40°00' W 073°30'3 2.8
2014-Aug-21 13:33N 39°58' W 073°28'1 1.2
2014-Aug-21 12:33N 39°59' W 073°29'4 3.6
2014-Aug-21 11:34N 40°02' W 073°31'1 1.2
2014-Aug-21 10:33N 40°02' W 073°33'2 1.6
2014-Aug-21 09:34N 40°02' W 073°31'2 1.5
2014-Aug-21 08:34N 40°01' W 073°32'3 3.0
2014-Aug-21 07:34N 39°59' W 073°28'1 1.4
2014-Aug-21 06:34N 39°60' W 073°27'3 3.3
2014-Aug-21 05:33N 40°02' W 073°30'2 1.9
2014-Aug-21 04:30N 40°01' W 073°33'3 3.0
2014-Aug-21 03:29N 40°02' W 073°29'2 1.6
2014-Aug-21 02:34N 40°03' W 073°31'3 2.6
2014-Aug-21 01:34N 40°00' W 073°29'3 3.3
2014-Aug-21 00:34N 39°57' W 073°27'2 2.4
2014-Aug-20 23:34N 39°59' W 073°25'7 7.1
2014-Aug-20 22:33N 40°06' W 073°25'7 7.4
2014-Aug-20 21:33N 40°11' W 073°31'9 8.8
2014-Aug-20 20:33N 40°17' W 073°40'1110.9
2014-Aug-20 19:33N 40°26' W 073°49'9 9.4
2014-Aug-20 18:33N 40°31' W 073°60'9 9.0
2014-Aug-20 17:33N 40°40' W 074°03'3 2.7
2014-Aug-20 16:33N 40°41' W 074°00'0 0.0
2014-Aug-20 15:33N 40°41' W 074°00'0 0.0
2014-Aug-20 14:33N 40°41' W 074°00'0 0.0
2014-Aug-20 13:33N 40°41' W 074°00'0 0.0
2014-Aug-20 12:33N 40°41' W 074°00'0 0.0
2014-Aug-20 11:33N 40°41' W 074°00'0 0.0
2014-Aug-20 10:33N 40°41' W 074°00'0 0.0
2014-Aug-20 09:33N 40°41' W 074°00'0 0.0
2014-Aug-20 08:33N 40°41' W 074°00'0 0.0
2014-Aug-20 07:33N 40°41' W 074°00'0 0.0
2014-Aug-20 06:33N 40°41' W 074°00'0 0.0
2014-Aug-20 05:33N 40°41' W 074°00'0 0.0
2014-Aug-20 04:33N 40°41' W 074°00'0 0.0
2014-Aug-20 03:33N 40°41' W 074°00'0 0.0
2014-Aug-20 02:33N 40°41' W 074°00'0 0.0
2014-Aug-20 01:33N 40°41' W 074°00'0 0.0
2014-Aug-20 00:33N 40°41' W 074°00'0 0.0
2014-Aug-19 23:33N 40°41' W 074°00'0 0.0
2014-Aug-19 22:33N 40°41' W 074°00'0 0.0
2014-Aug-19 21:33N 40°41' W 074°00'0 0.0
2014-Aug-19 20:33N 40°41' W 074°00'0 0.0
2014-Aug-19 19:33N 40°41' W 074°00'0 0.0
2014-Aug-19 18:33N 40°41' W 074°00'0 0.0
2014-Aug-19 17:33N 40°41' W 074°00'0 0.0
2014-Aug-19 16:33N 40°41' W 074°00'0 0.0
2014-Aug-19 15:33N 40°41' W 074°00'0 0.0
2014-Aug-19 14:33N 40°41' W 074°00'0 0.0
2014-Aug-19 13:33N 40°41' W 074°00'0 0.0
2014-Aug-19 12:33N 40°41' W 074°00'0 0.0
2014-Aug-19 11:33N 40°41' W 074°00'0 0.0
2014-Aug-19 10:33N 40°41' W 074°00'0 0.0
2014-Aug-19 09:33N 40°41' W 074°00'0 0.0
2014-Aug-19 08:33N 40°41' W 074°00'0 0.0
2014-Aug-19 07:33N 40°41' W 074°00'0 0.0
2014-Aug-19 06:33N 40°41' W 074°00'0 0.0
2014-Aug-19 05:33N 40°41' W 074°00'0 0.0
2014-Aug-19 04:33N 40°41' W 074°00'0 0.0
2014-Aug-19 03:33N 40°41' W 074°00'0 0.0
2014-Aug-19 02:33N 40°41' W 074°00'0 0.0
2014-Aug-19 01:33N 40°41' W 074°00'0 0.0
2014-Aug-19 00:33N 40°41' W 074°00'0 0.0
2014-Aug-18 23:33N 40°41' W 074°00'0 0.0
2014-Aug-18 22:33N 40°41' W 074°00'0 0.0
2014-Aug-18 21:33N 40°41' W 074°00'0 0.0
2014-Aug-18 20:33N 40°41' W 074°00'0 0.0
2014-Aug-18 19:33N 40°41' W 074°00'0 0.0
2014-Aug-18 18:33N 40°41' W 074°00'0 0.0
2014-Aug-18 17:33N 40°41' W 074°00'0 0.0
2014-Aug-18 16:33N 40°41' W 074°00'0 0.0
2014-Aug-18 15:33N 40°41' W 074°00'0 0.0
2014-Aug-18 14:33N 40°41' W 074°00'0 0.0
2014-Aug-18 13:33N 40°41' W 074°00'0 0.0
2014-Aug-18 12:33N 40°41' W 074°00'0 0.0
2014-Aug-18 11:33N 40°41' W 074°00'0 0.0
2014-Aug-18 10:33N 40°41' W 074°00'0 0.0
2014-Aug-18 09:30N 40°41' W 074°00'0 0.0
2014-Aug-18 08:33N 40°41' W 074°00'0 0.0
2014-Aug-18 07:33N 40°41' W 074°00'0 0.0
2014-Aug-18 06:33N 40°41' W 074°00'0 0.0
2014-Aug-18 05:33N 40°41' W 074°00'0 0.0
2014-Aug-18 04:33N 40°41' W 074°00'0 0.0
2014-Aug-18 03:33N 40°41' W 074°00'0 0.0
2014-Aug-18 02:33N 40°41' W 074°00'0 0.0
2014-Aug-18 01:33N 40°41' W 074°00'0 0.0
2014-Aug-18 00:30N 40°41' W 074°00'0 0.0
2014-Aug-17 18:33N 40°41' W 074°00'0 0.0
2014-Aug-17 17:30N 40°41' W 074°00'0 0.0
2014-Aug-17 16:33N 40°41' W 074°00'0 0.0
2014-Aug-17 15:33N 40°41' W 074°00'0 0.0
2014-Aug-17 14:33N 40°41' W 074°00'0 0.0
2014-Aug-17 13:33N 40°41' W 074°00'0 0.0
2014-Aug-17 12:33N 40°41' W 074°00'0 0.0
2014-Aug-17 11:33N 40°41' W 074°00'0 0.0
2014-Aug-17 10:30N 40°41' W 074°00'0 0.0
2014-Aug-17 09:33N 40°41' W 074°00'0 0.0
2014-Aug-17 08:33N 40°41' W 074°00'0 0.0
2014-Aug-17 07:33N 40°41' W 074°00'0 0.0
2014-Aug-17 06:33N 40°41' W 074°00'0 0.0
2014-Aug-17 05:33N 40°41' W 074°00'0 0.0
2014-Aug-17 04:33N 40°41' W 074°00'0 0.0
2014-Aug-17 03:33N 40°41' W 074°00'0 0.0
2014-Aug-17 02:33N 40°41' W 074°00'0 0.0
2014-Aug-17 01:33N 40°41' W 074°00'0 0.0
2014-Aug-17 00:33N 40°41' W 074°00'0 0.0
2014-Aug-16 23:33N 40°41' W 074°00'0 0.0
2014-Aug-16 22:33N 40°41' W 074°00'0 0.0
2014-Aug-16 21:33N 40°41' W 074°00'0 0.0
2014-Aug-16 20:33N 40°41' W 074°00'0 0.0
2014-Aug-16 19:33N 40°41' W 074°00'0 0.0
2014-Aug-16 18:33N 40°41' W 074°00'0 0.0
2014-Aug-16 17:33N 40°41' W 074°00'0 0.0
2014-Aug-16 16:33N 40°41' W 074°00'0 0.0
2014-Aug-16 15:33N 40°41' W 074°00'0 0.0
2014-Aug-16 14:33N 40°41' W 074°00'0 0.0
2014-Aug-16 13:33N 40°41' W 074°00'0 0.0
2014-Aug-16 12:33N 40°41' W 074°00'0 0.0
2014-Aug-16 11:33N 40°41' W 074°00'0 0.0
2014-Aug-16 10:33N 40°41' W 074°00'0 0.0
2014-Aug-16 09:33N 40°41' W 074°00'0 0.0
2014-Aug-16 08:33N 40°41' W 074°00'0 0.0
2014-Aug-16 07:33N 40°41' W 074°00'0 0.0
2014-Aug-16 06:33N 40°41' W 074°00'0 0.0
2014-Aug-16 05:33N 40°41' W 074°00'0 0.0
2014-Aug-16 04:33N 40°41' W 074°00'0 0.0
2014-Aug-16 03:33N 40°41' W 074°00'0 0.0
2014-Aug-16 02:33N 40°41' W 074°00'0 0.0
2014-Aug-16 01:33N 40°41' W 074°00'0 0.0
2014-Aug-16 00:33N 40°41' W 074°00'0 0.0
2014-Aug-15 23:33N 40°41' W 074°00'0 0.0
2014-Aug-15 22:33N 40°41' W 074°00'0 0.0
2014-Aug-15 21:33N 40°41' W 074°00'0 0.0
2014-Aug-15 20:33N 40°41' W 074°00'0 0.0
2014-Aug-15 19:33N 40°41' W 074°00'0 0.0
2014-Aug-15 18:33N 40°41' W 074°00'0 0.0
2014-Aug-15 17:33N 40°41' W 074°00'0 0.0
2014-Aug-15 16:33N 40°41' W 074°00'0 0.0
2014-Aug-15 15:33N 40°41' W 074°00'0 0.0
2014-Aug-15 14:33N 40°41' W 074°00'0 0.0
2014-Aug-15 13:33N 40°41' W 074°00'0 0.0
2014-Aug-15 12:33N 40°41' W 074°00'0 0.0
2014-Aug-15 11:33N 40°41' W 074°00'0 0.0
2014-Aug-15 10:33N 40°41' W 074°00'0 0.0
2014-Aug-15 09:33N 40°41' W 074°00'0 0.0
2014-Aug-15 08:33N 40°41' W 074°00'0 0.0
2014-Aug-15 07:33N 40°41' W 074°00'0 0.0
2014-Aug-15 06:30N 40°41' W 074°00'0 0.0
2014-Aug-15 05:33N 40°41' W 074°00'0 0.0
2014-Aug-15 04:33N 40°41' W 074°00'0 0.0
2014-Aug-15 03:33N 40°41' W 074°00'0 0.0
2014-Aug-15 02:33N 40°41' W 074°00'0 0.0
2014-Aug-15 01:33N 40°41' W 074°00'0 0.0
2014-Aug-15 00:33N 40°41' W 074°00'0 0.0
2014-Aug-14 23:33N 40°41' W 074°00'0 0.0
2014-Aug-14 22:33N 40°41' W 074°00'0 0.0
2014-Aug-14 21:33N 40°41' W 074°00'0 0.0
2014-Aug-14 20:33N 40°41' W 074°00'0 0.0
2014-Aug-14 19:33N 40°41' W 074°00'0 0.0
2014-Aug-14 18:33N 40°41' W 074°00'0 0.0
2014-Aug-14 17:33N 40°41' W 074°00'0 0.0
2014-Aug-14 16:33N 40°41' W 074°00'0 0.0
2014-Aug-14 15:33N 40°41' W 074°00'0 0.0
2014-Aug-14 14:33N 40°41' W 074°00'0 0.0
2014-Aug-14 13:33N 40°41' W 074°00'0 0.0
2014-Aug-14 12:33N 40°41' W 074°00'0 0.0
2014-Aug-14 11:33N 40°41' W 074°00'0 0.0
2014-Aug-14 10:33N 40°41' W 074°00'0 0.0
2014-Aug-14 09:33N 40°41' W 074°00'0 0.0
2014-Aug-14 08:33N 40°41' W 074°00'0 0.0
2014-Aug-14 07:33N 40°41' W 074°00'0 0.0
2014-Aug-14 06:33N 40°41' W 074°00'0 0.0
2014-Aug-14 05:33N 40°41' W 074°00'0 0.0
2014-Aug-14 04:33N 40°41' W 074°00'0 0.0
2014-Aug-14 03:33N 40°41' W 074°00'0 0.0
2014-Aug-14 02:33N 40°41' W 074°00'0 0.0
2014-Aug-14 01:33N 40°41' W 074°00'0 0.0
2014-Aug-14 00:33N 40°41' W 074°00'0 0.0
2014-Aug-13 23:33N 40°41' W 074°00'0 0.0
2014-Aug-13 22:33N 40°41' W 074°00'0 0.0
2014-Aug-13 21:33N 40°41' W 074°00'0 0.0
2014-Aug-13 20:33N 40°41' W 074°00'0 0.0
2014-Aug-13 19:30N 40°41' W 074°00'0 0.0
2014-Aug-13 18:33N 40°41' W 074°00'0 0.0
2014-Aug-13 17:33N 40°41' W 074°00'0 0.0
2014-Aug-13 16:33N 40°41' W 074°00'0 0.0
2014-Aug-13 15:33N 40°41' W 074°00'0 0.0
2014-Aug-13 14:33N 40°41' W 074°00'0 0.0
2014-Aug-13 13:33N 40°41' W 074°00'0 0.0
2014-Aug-13 12:33N 40°41' W 074°00'0 0.0
2014-Aug-13 11:33N 40°41' W 074°00'0 0.0
2014-Aug-13 10:33N 40°41' W 074°00'0 0.0
2014-Aug-13 09:33N 40°41' W 074°00'0 0.0
2014-Aug-13 08:33N 40°41' W 074°00'0 0.0
2014-Aug-13 07:33N 40°41' W 074°00'0 0.0
2014-Aug-13 06:33N 40°41' W 074°00'0 0.0
2014-Aug-13 05:33N 40°41' W 074°00'0 0.0
2014-Aug-13 04:33N 40°41' W 074°00'0 0.0
2014-Aug-13 03:33N 40°41' W 074°00'0 0.0
2014-Aug-13 02:33N 40°41' W 074°00'0 0.0
2014-Aug-13 01:33N 40°41' W 074°00'0 0.0
2014-Aug-13 00:33N 40°41' W 074°00'0 0.0
2014-Aug-12 23:33N 40°41' W 074°00'0 0.0
2014-Aug-12 22:33N 40°41' W 074°00'0 0.0
2014-Aug-12 21:33N 40°41' W 074°00'0 0.0
2014-Aug-12 20:33N 40°41' W 074°00'0 0.0
2014-Aug-12 19:33N 40°41' W 074°00'0 0.0
2014-Aug-12 18:33N 40°41' W 074°00'0 0.0
2014-Aug-12 17:33N 40°41' W 074°00'0 0.0
2014-Aug-12 16:33N 40°41' W 074°00'0 0.0
2014-Aug-12 15:33N 40°41' W 074°00'0 0.0
2014-Aug-12 14:33N 40°41' W 074°00'0 0.0
2014-Aug-12 13:33N 40°41' W 074°00'0 0.0
2014-Aug-12 12:33N 40°41' W 074°00'0 0.0
2014-Aug-12 11:33N 40°41' W 074°00'0 0.0
2014-Aug-12 10:33N 40°41' W 074°00'0 0.0
2014-Aug-12 09:33N 40°41' W 074°00'0 0.0
2014-Aug-12 08:33N 40°41' W 074°00'0 0.0
2014-Aug-12 07:27N 40°41' W 074°00'0 0.0
2014-Aug-12 06:33N 40°41' W 074°00'0 0.0
2014-Aug-12 05:33N 40°41' W 074°00'0 0.0
2014-Aug-12 04:33N 40°41' W 074°00'0 0.0
2014-Aug-12 03:33N 40°41' W 074°00'0 0.0
2014-Aug-12 02:33N 40°41' W 074°00'0 0.0
2014-Aug-12 01:33N 40°41' W 074°00'0 0.0
2014-Aug-12 00:33N 40°41' W 074°00'0 0.0
2014-Aug-11 23:33N 40°41' W 074°00'0 0.0
2014-Aug-11 22:30N 40°41' W 074°00'  

Dump ship's entire track history